PWSweather.com
Personal Weather Stations
Station Observations
BNUMANCIA
BarcelonaES 08029

BarcelonaES 08029

Lat: 41.3855863, Lon: 2.1367624

Elevation: 46

Station Type: WMR180

High Low Average
Temperature 88.3°F31.3°F 70.5°F21.4°F 77.3°F25.2°F
Dew Point 66.2°F19.0°F 58.1°F14.5°F 62.5°F16.9°F
Winds 6.5 mph WSW10.5 mph WSW Calm Calm 1.7 mph 2.7 mph
Wind Gusts 9.6 mph15.4 mph -- 2.9 mph4.7 mph
Humidity 82% 42% 61%
Pressure 30.21 in1023.00 in 30.09 in1019.00 in -
Precipitation 0.00 in0.00 in - -
Hour Temp Dew Point Humidity Winds Wind Gusts Pressure Precip Precip Rate Daily Precip Total
12:10 AM 74.8°F23.8°C 60.0°F15.6°C 60% 1.3 mph N2.1 kmh N 1.6 mph2.6 kmh 30.09 in1019.0 mb 0.00 in0.0 mm 0.00 in0.0 mm 0.00 in0.0 mm
12:21 AM 75.0°F23.9°C 59.3°F15.2°C 58% 1.6 mph W2.6 kmh W 3.8 mph6.1 kmh 30.09 in1019.0 mb 0.00 in0.0 mm 0.00 in0.0 mm 0.00 in0.0 mm
12:26 AM 75.0°F23.9°C 58.8°F14.9°C 57% 1.6 mph W2.6 kmh W 2.2 mph3.5 kmh 30.09 in1019.0 mb 0.00 in0.0 mm 0.00 in0.0 mm 0.00 in0.0 mm
12:35 AM 75.0°F23.9°C 58.3°F14.6°C 56% 2.7 mph WSW4.3 kmh WSW 2.7 mph4.3 kmh 30.09 in1019.0 mb 0.00 in0.0 mm 0.00 in0.0 mm 0.00 in0.0 mm
12:40 AM 74.8°F23.8°C 58.1°F14.5°C 56% 3.1 mph SW5.0 kmh SW 3.1 mph5.0 kmh 30.09 in1019.0 mb 0.00 in0.0 mm 0.00 in0.0 mm 0.00 in0.0 mm
12:50 AM 74.8°F23.8°C 58.1°F14.5°C 56% 2.7 mph WSW4.3 kmh WSW 3.8 mph6.1 kmh 30.09 in1019.0 mb 0.00 in0.0 mm 0.00 in0.0 mm 0.00 in0.0 mm
01:01 AM 74.7°F23.7°C 58.9°F14.9°C 58% 3.6 mph W5.8 kmh W 3.6 mph5.8 kmh 30.09 in1019.0 mb 0.00 in0.0 mm 0.00 in0.0 mm 0.00 in0.0 mm
01:05 AM 74.5°F23.6°C 59.2°F15.1°C 59% 5.4 mph W8.7 kmh W 5.8 mph9.3 kmh 30.09 in1019.0 mb 0.00 in0.0 mm 0.00 in0.0 mm 0.00 in0.0 mm
01:14 AM 74.3°F23.5°C 60.0°F15.6°C 61% 2.0 mph SW3.2 kmh SW 4.0 mph6.4 kmh 30.09 in1019.0 mb 0.00 in0.0 mm 0.00 in0.0 mm 0.00 in0.0 mm
01:20 AM 74.1°F23.4°C 59.8°F15.4°C 61% 4.9 mph W7.9 kmh W 4.9 mph7.9 kmh 30.09 in1019.0 mb 0.00 in0.0 mm 0.00 in0.0 mm 0.00 in0.0 mm
01:26 AM 74.1°F23.4°C 60.3°F15.7°C 62% 3.8 mph WSW6.1 kmh WSW 3.8 mph6.1 kmh 30.09 in1019.0 mb 0.00 in0.0 mm 0.00 in0.0 mm 0.00 in0.0 mm
01:34 AM 74.1°F23.4°C 60.3°F15.7°C 62% 5.4 mph W8.7 kmh W 5.4 mph8.7 kmh 30.09 in1019.0 mb 0.00 in0.0 mm 0.00 in0.0 mm 0.00 in0.0 mm
01:45 AM 73.9°F23.3°C 60.6°F15.9°C 63% 5.4 mph WSW8.7 kmh WSW 5.4 mph8.7 kmh 30.09 in1019.0 mb 0.00 in0.0 mm 0.00 in0.0 mm 0.00 in0.0 mm
01:49 AM 73.8°F23.2°C 60.4°F15.8°C 63% 2.7 mph SE4.3 kmh SE 5.4 mph8.7 kmh 30.09 in1019.0 mb 0.00 in0.0 mm 0.00 in0.0 mm 0.00 in0.0 mm
01:54 AM 73.8°F23.2°C 60.8°F16.0°C 64% 3.4 mph S5.5 kmh S 5.4 mph8.7 kmh 30.09 in1019.0 mb 0.00 in0.0 mm 0.00 in0.0 mm 0.00 in0.0 mm
01:59 AM 73.6°F23.1°C 60.7°F15.9°C 64% 2.7 mph WSW4.3 kmh WSW 4.5 mph7.2 kmh 30.09 in1019.0 mb 0.00 in0.0 mm 0.00 in0.0 mm 0.00 in0.0 mm
02:03 AM 73.6°F23.1°C 61.1°F16.2°C 65% 2.9 mph WNW4.7 kmh WNW 4.3 mph6.9 kmh 30.09 in1019.0 mb 0.00 in0.0 mm 0.00 in0.0 mm 0.00 in0.0 mm
02:09 AM 73.6°F23.1°C 61.1°F16.2°C 65% 3.8 mph W6.1 kmh W 3.8 mph6.1 kmh 30.09 in1019.0 mb 0.00 in0.0 mm 0.00 in0.0 mm 0.00 in0.0 mm
02:14 AM 73.6°F23.1°C 60.7°F15.9°C 64% 1.3 mph WSW2.1 kmh WSW 3.1 mph5.0 kmh 30.09 in1019.0 mb 0.00 in0.0 mm 0.00 in0.0 mm 0.00 in0.0 mm
02:19 AM 73.6°F23.1°C 61.1°F16.2°C 65% 3.4 mph W5.5 kmh W 3.8 mph6.1 kmh 30.09 in1019.0 mb 0.00 in0.0 mm 0.00 in0.0 mm 0.00 in0.0 mm
02:25 AM 73.6°F23.1°C 61.1°F16.2°C 65% 2.5 mph W4.0 kmh W 4.9 mph7.9 kmh 30.09 in1019.0 mb 0.00 in0.0 mm 0.00 in0.0 mm 0.00 in0.0 mm
02:30 AM 73.6°F23.1°C 61.5°F16.4°C 66% 3.6 mph W5.8 kmh W 3.6 mph5.8 kmh 30.09 in1019.0 mb 0.00 in0.0 mm 0.00 in0.0 mm 0.00 in0.0 mm
02:35 AM 73.4°F23.0°C 61.4°F16.3°C 66% 2.0 mph WSW3.2 kmh WSW 2.0 mph3.2 kmh 30.09 in1019.0 mb 0.00 in0.0 mm 0.00 in0.0 mm 0.00 in0.0 mm
02:40 AM 73.4°F23.0°C 61.4°F16.3°C 66% 2.5 mph SW4.0 kmh SW 2.5 mph4.0 kmh 30.09 in1019.0 mb 0.00 in0.0 mm 0.00 in0.0 mm 0.00 in0.0 mm
02:44 AM 73.4°F23.0°C 61.8°F16.6°C 67% 2.0 mph W3.2 kmh W 4.0 mph6.4 kmh 30.09 in1019.0 mb 0.00 in0.0 mm 0.00 in0.0 mm 0.00 in0.0 mm
02:50 AM 73.4°F23.0°C 61.8°F16.6°C 67% 6.5 mph WSW10.5 kmh WSW 6.5 mph10.5 kmh 30.09 in1019.0 mb 0.00 in0.0 mm 0.00 in0.0 mm 0.00 in0.0 mm
02:54 AM 73.2°F22.9°C 62.0°F16.7°C 68% 2.7 mph W4.3 kmh W 6.5 mph10.5 kmh 30.09 in1019.0 mb 0.00 in0.0 mm 0.00 in0.0 mm 0.00 in0.0 mm
02:59 AM 73.2°F22.9°C 62.0°F16.7°C 68% 1.6 mph WSW2.6 kmh WSW 3.8 mph6.1 kmh 30.09 in1019.0 mb 0.00 in0.0 mm 0.00 in0.0 mm 0.00 in0.0 mm
03:04 AM 73.0°F22.8°C 61.9°F16.6°C 68% 2.9 mph W4.7 kmh W 2.9 mph4.7 kmh 30.09 in1019.0 mb 0.00 in0.0 mm 0.00 in0.0 mm 0.00 in0.0 mm
03:09 AM 73.0°F22.8°C 61.9°F16.6°C 68% Calm Calm 2.7 mph4.3 kmh 30.09 in1019.0 mb 0.00 in0.0 mm 0.00 in0.0 mm 0.00 in0.0 mm
03:13 AM 73.0°F22.8°C 61.9°F16.6°C 68% Calm Calm -- 30.09 in1019.0 mb 0.00 in0.0 mm 0.00 in0.0 mm 0.00 in0.0 mm
03:19 AM 72.9°F22.7°C 62.5°F16.9°C 70% Calm Calm -- 30.09 in1019.0 mb 0.00 in0.0 mm 0.00 in0.0 mm 0.00 in0.0 mm
03:24 AM 72.9°F22.7°C 62.5°F16.9°C 70% Calm Calm -- 30.09 in1019.0 mb 0.00 in0.0 mm 0.00 in0.0 mm 0.00 in0.0 mm
03:30 AM 72.7°F22.6°C 62.3°F16.8°C 70% Calm Calm -- 30.09 in1019.0 mb 0.00 in0.0 mm 0.00 in0.0 mm 0.00 in0.0 mm
03:35 AM 72.7°F22.6°C 62.7°F17.1°C 71% 2.0 mph NNW3.2 kmh NNW 2.0 mph3.2 kmh 30.09 in1019.0 mb 0.00 in0.0 mm 0.00 in0.0 mm 0.00 in0.0 mm
03:40 AM 72.7°F22.6°C 63.5°F17.5°C 73% Calm Calm 2.0 mph3.2 kmh 30.09 in1019.0 mb 0.00 in0.0 mm 0.00 in0.0 mm 0.00 in0.0 mm
03:45 AM 72.7°F22.6°C 63.5°F17.5°C 73% Calm Calm -- 30.09 in1019.0 mb 0.00 in0.0 mm 0.00 in0.0 mm 0.00 in0.0 mm
03:49 AM 72.7°F22.6°C 63.9°F17.7°C 74% Calm Calm -- 30.09 in1019.0 mb 0.00 in0.0 mm 0.00 in0.0 mm 0.00 in0.0 mm
03:54 AM 72.5°F22.5°C 63.8°F17.7°C 74% Calm Calm -- 30.09 in1019.0 mb 0.00 in0.0 mm 0.00 in0.0 mm 0.00 in0.0 mm
03:58 AM 72.5°F22.5°C 63.8°F17.7°C 74% Calm Calm -- 30.09 in1019.0 mb 0.00 in0.0 mm 0.00 in0.0 mm 0.00 in0.0 mm
04:04 AM 72.5°F22.5°C 63.8°F17.7°C 74% Calm Calm -- 30.09 in1019.0 mb 0.00 in0.0 mm 0.00 in0.0 mm 0.00 in0.0 mm
04:09 AM 72.5°F22.5°C 64.1°F17.8°C 75% Calm Calm -- 30.09 in1019.0 mb 0.00 in0.0 mm 0.00 in0.0 mm 0.00 in0.0 mm
04:14 AM 72.5°F22.5°C 64.1°F17.8°C 75% Calm Calm -- 30.09 in1019.0 mb 0.00 in0.0 mm 0.00 in0.0 mm 0.00 in0.0 mm
04:19 AM 72.3°F22.4°C 63.6°F17.6°C 74% Calm Calm -- 30.09 in1019.0 mb 0.00 in0.0 mm 0.00 in0.0 mm 0.00 in0.0 mm
04:24 AM 72.3°F22.4°C 63.6°F17.6°C 74% Calm Calm -- 30.09 in1019.0 mb 0.00 in0.0 mm 0.00 in0.0 mm 0.00 in0.0 mm
04:30 AM 72.3°F22.4°C 63.6°F17.6°C 74% Calm Calm -- 30.09 in1019.0 mb 0.00 in0.0 mm 0.00 in0.0 mm 0.00 in0.0 mm
04:35 AM 72.1°F22.3°C 63.0°F17.2°C 73% Calm Calm -- 30.09 in1019.0 mb 0.00 in0.0 mm 0.00 in0.0 mm 0.00 in0.0 mm
04:40 AM 72.1°F22.3°C 63.0°F17.2°C 73% Calm Calm -- 30.09 in1019.0 mb 0.00 in0.0 mm 0.00 in0.0 mm 0.00 in0.0 mm
04:45 AM 72.1°F22.3°C 63.0°F17.2°C 73% Calm Calm 1.6 mph2.6 kmh 30.09 in1019.0 mb 0.00 in0.0 mm 0.00 in0.0 mm 0.00 in0.0 mm
04:49 AM 72.1°F22.3°C 63.0°F17.2°C 73% Calm Calm -- 30.09 in1019.0 mb 0.00 in0.0 mm 0.00 in0.0 mm 0.00 in0.0 mm
04:54 AM 72.1°F22.3°C 63.0°F17.2°C 73% Calm Calm -- 30.09 in1019.0 mb 0.00 in0.0 mm 0.00 in0.0 mm 0.00 in0.0 mm
04:59 AM 72.0°F22.2°C 62.8°F17.1°C 73% Calm Calm -- 30.09 in1019.0 mb 0.00 in0.0 mm 0.00 in0.0 mm 0.00 in0.0 mm
05:04 AM 71.8°F22.1°C 62.7°F17.1°C 73% Calm Calm -- 30.09 in1019.0 mb 0.00 in0.0 mm 0.00 in0.0 mm 0.00 in0.0 mm
05:09 AM 71.8°F22.1°C 62.7°F17.1°C 73% 1.1 mph NNW1.8 kmh NNW 1.6 mph2.6 kmh 30.09 in1019.0 mb 0.00 in0.0 mm 0.00 in0.0 mm 0.00 in0.0 mm
05:14 AM 72.0°F22.2°C 63.2°F17.3°C 74% Calm Calm -- 30.09 in1019.0 mb 0.00 in0.0 mm 0.00 in0.0 mm 0.00 in0.0 mm
05:19 AM 72.0°F22.2°C 63.2°F17.3°C 74% Calm Calm -- 30.09 in1019.0 mb 0.00 in0.0 mm 0.00 in0.0 mm 0.00 in0.0 mm
05:24 AM 71.6°F22.0°C 63.3°F17.4°C 75% Calm Calm -- 30.09 in1019.0 mb 0.00 in0.0 mm 0.00 in0.0 mm 0.00 in0.0 mm
05:29 AM 71.2°F21.8°C 63.3°F17.4°C 76% Calm Calm -- 30.09 in1019.0 mb 0.00 in0.0 mm 0.00 in0.0 mm 0.00 in0.0 mm
05:35 AM 71.1°F21.7°C 63.5°F17.5°C 77% Calm Calm -- 30.09 in1019.0 mb 0.00 in0.0 mm 0.00 in0.0 mm 0.00 in0.0 mm
05:40 AM 70.7°F21.5°C 63.5°F17.5°C 78% Calm Calm -- 30.09 in1019.0 mb 0.00 in0.0 mm 0.00 in0.0 mm 0.00 in0.0 mm
05:45 AM 70.7°F21.5°C 63.9°F17.7°C 79% Calm Calm -- 30.12 in1020.0 mb 0.00 in0.0 mm 0.00 in0.0 mm 0.00 in0.0 mm
05:49 AM 70.5°F21.4°C 63.7°F17.6°C 79% Calm Calm -- 30.12 in1020.0 mb 0.00 in0.0 mm 0.00 in0.0 mm 0.00 in0.0 mm
05:54 AM 70.5°F21.4°C 64.1°F17.8°C 80% Calm Calm -- 30.12 in1020.0 mb 0.00 in0.0 mm 0.00 in0.0 mm 0.00 in0.0 mm
05:59 AM 70.5°F21.4°C 64.4°F18.0°C 81% Calm Calm -- 30.12 in1020.0 mb 0.00 in0.0 mm 0.00 in0.0 mm 0.00 in0.0 mm
06:04 AM 70.5°F21.4°C 64.4°F18.0°C 81% Calm Calm -- 30.12 in1020.0 mb 0.00 in0.0 mm 0.00 in0.0 mm 0.00 in0.0 mm
06:09 AM 70.7°F21.5°C 64.6°F18.1°C 81% Calm Calm -- 30.12 in1020.0 mb 0.00 in0.0 mm 0.00 in0.0 mm 0.00 in0.0 mm
06:14 AM 70.9°F21.6°C 64.8°F18.2°C 81% Calm Calm -- 30.12 in1020.0 mb 0.00 in0.0 mm 0.00 in0.0 mm 0.00 in0.0 mm
06:19 AM 71.4°F21.9°C 65.6°F18.7°C 82% Calm Calm -- 30.12 in1020.0 mb 0.00 in0.0 mm 0.00 in0.0 mm 0.00 in0.0 mm
06:24 AM 71.8°F22.1°C 65.6°F18.7°C 81% Calm Calm -- 30.12 in1020.0 mb 0.00 in0.0 mm 0.00 in0.0 mm 0.00 in0.0 mm
06:29 AM 72.3°F22.4°C 66.2°F19.0°C 81% Calm Calm -- 30.12 in1020.0 mb 0.00 in0.0 mm 0.00 in0.0 mm 0.00 in0.0 mm
06:35 AM 72.5°F22.5°C 66.0°F18.9°C 80% Calm Calm -- 30.12 in1020.0 mb 0.00 in0.0 mm 0.00 in0.0 mm 0.00 in0.0 mm
06:40 AM 72.5°F22.5°C 66.0°F18.9°C 80% Calm Calm -- 30.12 in1020.0 mb 0.00 in0.0 mm 0.00 in0.0 mm 0.00 in0.0 mm
06:45 AM 72.5°F22.5°C 65.6°F18.7°C 79% Calm Calm -- 30.12 in1020.0 mb 0.00 in0.0 mm 0.00 in0.0 mm 0.00 in0.0 mm
06:49 AM 72.5°F22.5°C 65.6°F18.7°C 79% Calm Calm -- 30.12 in1020.0 mb 0.00 in0.0 mm 0.00 in0.0 mm 0.00 in0.0 mm
06:54 AM 72.3°F22.4°C 65.5°F18.6°C 79% Calm Calm -- 30.12 in1020.0 mb 0.00 in0.0 mm 0.00 in0.0 mm 0.00 in0.0 mm
06:59 AM 72.3°F22.4°C 65.5°F18.6°C 79% Calm Calm -- 30.12 in1020.0 mb 0.00 in0.0 mm 0.00 in0.0 mm 0.00 in0.0 mm
07:04 AM 72.5°F22.5°C 65.3°F18.5°C 78% 1.6 mph NNW2.6 kmh NNW 2.0 mph3.2 kmh 30.12 in1020.0 mb 0.00 in0.0 mm 0.00 in0.0 mm 0.00 in0.0 mm
07:09 AM 72.9°F22.7°C 65.6°F18.7°C 78% 1.1 mph NNW1.8 kmh NNW 2.0 mph3.2 kmh 30.12 in1020.0 mb 0.00 in0.0 mm 0.00 in0.0 mm 0.00 in0.0 mm
07:14 AM 73.2°F22.9°C 65.6°F18.7°C 77% Calm Calm 1.1 mph1.8 kmh 30.12 in1020.0 mb 0.00 in0.0 mm 0.00 in0.0 mm 0.00 in0.0 mm
07:19 AM 73.6°F23.1°C 65.6°F18.7°C 76% Calm Calm 1.1 mph1.8 kmh 30.12 in1020.0 mb 0.00 in0.0 mm 0.00 in0.0 mm 0.00 in0.0 mm
07:24 AM 73.9°F23.3°C 65.5°F18.6°C 75% Calm Calm 1.3 mph2.1 kmh 30.12 in1020.0 mb 0.00 in0.0 mm 0.00 in0.0 mm 0.00 in0.0 mm
07:29 AM 74.3°F23.5°C 65.5°F18.6°C 74% Calm Calm -- 30.12 in1020.0 mb 0.00 in0.0 mm 0.00 in0.0 mm 0.00 in0.0 mm
07:35 AM 74.7°F23.7°C 65.4°F18.6°C 73% 4.0 mph W6.4 kmh W 4.0 mph6.4 kmh 30.12 in1020.0 mb 0.00 in0.0 mm 0.00 in0.0 mm 0.00 in0.0 mm
07:40 AM 74.7°F23.7°C 63.8°F17.7°C 69% Calm Calm 4.0 mph6.4 kmh 30.12 in1020.0 mb 0.00 in0.0 mm 0.00 in0.0 mm 0.00 in0.0 mm
07:45 AM 74.8°F23.8°C 64.0°F17.8°C 69% Calm Calm -- 30.12 in1020.0 mb 0.00 in0.0 mm 0.00 in0.0 mm 0.00 in0.0 mm
07:49 AM 75.0°F23.9°C 63.8°F17.7°C 68% Calm Calm 1.1 mph1.8 kmh 30.12 in1020.0 mb 0.00 in0.0 mm 0.00 in0.0 mm 0.00 in0.0 mm
07:54 AM 75.4°F24.1°C 64.1°F17.8°C 68% Calm Calm -- 30.12 in1020.0 mb 0.00 in0.0 mm 0.00 in0.0 mm 0.00 in0.0 mm
07:59 AM 75.4°F24.1°C 64.1°F17.8°C 68% Calm Calm 1.3 mph2.1 kmh 30.12 in1020.0 mb 0.00 in0.0 mm 0.00 in0.0 mm 0.00 in0.0 mm
08:04 AM 75.4°F24.1°C 64.1°F17.8°C 68% Calm Calm 2.0 mph3.2 kmh 30.12 in1020.0 mb 0.00 in0.0 mm 0.00 in0.0 mm 0.00 in0.0 mm
08:09 AM 75.6°F24.2°C 64.3°F17.9°C 68% 1.1 mph W1.8 kmh W 1.3 mph2.1 kmh 30.12 in1020.0 mb 0.00 in0.0 mm 0.00 in0.0 mm 0.00 in0.0 mm
08:14 AM 75.9°F24.4°C 64.2°F17.9°C 67% Calm Calm -- 30.12 in1020.0 mb 0.00 in0.0 mm 0.00 in0.0 mm 0.00 in0.0 mm
08:19 AM 76.1°F24.5°C 63.9°F17.7°C 66% Calm Calm 1.6 mph2.6 kmh 30.12 in1020.0 mb 0.00 in0.0 mm 0.00 in0.0 mm 0.00 in0.0 mm
08:24 AM 76.1°F24.5°C 63.1°F17.3°C 64% Calm Calm 4.0 mph6.4 kmh 30.12 in1020.0 mb 0.00 in0.0 mm 0.00 in0.0 mm 0.00 in0.0 mm
08:29 AM 76.3°F24.6°C 63.2°F17.3°C 64% Calm Calm -- 30.12 in1020.0 mb 0.00 in0.0 mm 0.00 in0.0 mm 0.00 in0.0 mm
08:35 AM 76.3°F24.6°C 62.8°F17.1°C 63% Calm Calm 1.6 mph2.6 kmh 30.12 in1020.0 mb 0.00 in0.0 mm 0.00 in0.0 mm 0.00 in0.0 mm
08:40 AM 76.3°F24.6°C 62.3°F16.8°C 62% 0.9 mph W1.4 kmh W 0.9 mph1.4 kmh 30.12 in1020.0 mb 0.00 in0.0 mm 0.00 in0.0 mm 0.00 in0.0 mm
08:44 AM 76.5°F24.7°C 62.5°F16.9°C 62% 2.9 mph NE4.7 kmh NE 2.9 mph4.7 kmh 30.12 in1020.0 mb 0.00 in0.0 mm 0.00 in0.0 mm 0.00 in0.0 mm
08:50 AM 77.4°F25.2°C 63.3°F17.4°C 62% Calm Calm 2.9 mph4.7 kmh 30.12 in1020.0 mb 0.00 in0.0 mm 0.00 in0.0 mm 0.00 in0.0 mm
08:54 AM 77.7°F25.4°C 63.2°F17.3°C 61% 2.0 mph NE3.2 kmh NE 3.8 mph6.1 kmh 30.12 in1020.0 mb 0.00 in0.0 mm 0.00 in0.0 mm 0.00 in0.0 mm
08:59 AM 77.7°F25.4°C 62.3°F16.8°C 59% 5.6 mph NNE9.0 kmh NNE 5.6 mph9.0 kmh 30.12 in1020.0 mb 0.00 in0.0 mm 0.00 in0.0 mm 0.00 in0.0 mm
09:04 AM 77.5°F25.3°C 62.1°F16.7°C 59% 3.8 mph NNW6.1 kmh NNW 5.6 mph9.0 kmh 30.12 in1020.0 mb 0.00 in0.0 mm 0.00 in0.0 mm 0.00 in0.0 mm
09:09 AM 77.7°F25.4°C 61.8°F16.6°C 58% 2.7 mph NE4.3 kmh NE 4.0 mph6.4 kmh 30.12 in1020.0 mb 0.00 in0.0 mm 0.00 in0.0 mm 0.00 in0.0 mm
09:14 AM 78.1°F25.6°C 62.6°F17.0°C 59% Calm Calm 2.7 mph4.3 kmh 30.12 in1020.0 mb 0.00 in0.0 mm 0.00 in0.0 mm 0.00 in0.0 mm
09:19 AM 78.4°F25.8°C 62.9°F17.2°C 59% 2.2 mph NE3.5 kmh NE 2.5 mph4.0 kmh 30.12 in1020.0 mb 0.00 in0.0 mm 0.00 in0.0 mm 0.00 in0.0 mm
09:24 AM 78.6°F25.9°C 62.6°F17.0°C 58% Calm Calm 2.2 mph3.5 kmh 30.12 in1020.0 mb 0.00 in0.0 mm 0.00 in0.0 mm 0.00 in0.0 mm
09:29 AM 78.6°F25.9°C 62.1°F16.7°C 57% 0.9 mph NNW1.4 kmh NNW 2.9 mph4.7 kmh 30.12 in1020.0 mb 0.00 in0.0 mm 0.00 in0.0 mm 0.00 in0.0 mm
09:34 AM 78.6°F25.9°C 62.1°F16.7°C 57% 2.7 mph N4.3 kmh N 2.7 mph4.3 kmh 30.12 in1020.0 mb 0.00 in0.0 mm 0.00 in0.0 mm 0.00 in0.0 mm
09:39 AM 78.4°F25.8°C 62.0°F16.7°C 57% 3.6 mph NE5.8 kmh NE 4.3 mph6.9 kmh 30.12 in1020.0 mb 0.00 in0.0 mm 0.00 in0.0 mm 0.00 in0.0 mm
09:45 AM 78.4°F25.8°C 62.0°F16.7°C 57% 0.9 mph NNW1.4 kmh NNW 4.3 mph6.9 kmh 30.12 in1020.0 mb 0.00 in0.0 mm 0.00 in0.0 mm 0.00 in0.0 mm
09:50 AM 79.0°F26.1°C 62.0°F16.7°C 56% 4.3 mph NE6.9 kmh NE 4.3 mph6.9 kmh 30.12 in1020.0 mb 0.00 in0.0 mm 0.00 in0.0 mm 0.00 in0.0 mm
09:54 AM 79.3°F26.3°C 62.8°F17.1°C 57% 2.2 mph N3.5 kmh N 4.3 mph6.9 kmh 30.12 in1020.0 mb 0.00 in0.0 mm 0.00 in0.0 mm 0.00 in0.0 mm
09:59 AM 79.5°F26.4°C 62.5°F16.9°C 56% 3.4 mph NE5.5 kmh NE 3.4 mph5.5 kmh 30.12 in1020.0 mb 0.00 in0.0 mm 0.00 in0.0 mm 0.00 in0.0 mm
10:04 AM 79.5°F26.4°C 62.5°F16.9°C 56% 2.7 mph NE4.3 kmh NE 3.4 mph5.5 kmh 30.12 in1020.0 mb 0.00 in0.0 mm 0.00 in0.0 mm 0.00 in0.0 mm
10:09 AM 79.7°F26.5°C 62.6°F17.0°C 56% 1.6 mph WNW2.6 kmh WNW 5.4 mph8.7 kmh 30.12 in1020.0 mb 0.00 in0.0 mm 0.00 in0.0 mm 0.00 in0.0 mm
10:14 AM 79.7°F26.5°C 62.6°F17.0°C 56% 3.6 mph NE5.8 kmh NE 3.6 mph5.8 kmh 30.12 in1020.0 mb 0.00 in0.0 mm 0.00 in0.0 mm 0.00 in0.0 mm
10:19 AM 79.7°F26.5°C 62.6°F17.0°C 56% 1.3 mph N2.1 kmh N 4.7 mph7.6 kmh 30.12 in1020.0 mb 0.00 in0.0 mm 0.00 in0.0 mm 0.00 in0.0 mm
10:24 AM 79.7°F26.5°C 62.1°F16.7°C 55% 3.1 mph NNE5.0 kmh NNE 3.1 mph5.0 kmh 30.12 in1020.0 mb 0.00 in0.0 mm 0.00 in0.0 mm 0.00 in0.0 mm
10:29 AM 79.5°F26.4°C 62.0°F16.7°C 55% 3.8 mph NE6.1 kmh NE 4.9 mph7.9 kmh 30.15 in1021.0 mb 0.00 in0.0 mm 0.00 in0.0 mm 0.00 in0.0 mm
10:34 AM 79.7°F26.5°C 62.6°F17.0°C 56% 1.6 mph NNE2.6 kmh NNE 4.0 mph6.4 kmh 30.15 in1021.0 mb 0.00 in0.0 mm 0.00 in0.0 mm 0.00 in0.0 mm
10:40 AM 79.5°F26.4°C 62.0°F16.7°C 55% 1.1 mph NE1.8 kmh NE 4.3 mph6.9 kmh 30.15 in1021.0 mb 0.00 in0.0 mm 0.00 in0.0 mm 0.00 in0.0 mm
10:45 AM 79.5°F26.4°C 62.5°F16.9°C 56% 3.8 mph NE6.1 kmh NE 5.4 mph8.7 kmh 30.12 in1020.0 mb 0.00 in0.0 mm 0.00 in0.0 mm 0.00 in0.0 mm
10:50 AM 79.7°F26.5°C 62.6°F17.0°C 56% 1.6 mph NE2.6 kmh NE 4.0 mph6.4 kmh 30.12 in1020.0 mb 0.00 in0.0 mm 0.00 in0.0 mm 0.00 in0.0 mm
10:54 AM 79.3°F26.3°C 62.3°F16.8°C 56% Calm Calm 4.9 mph7.9 kmh 30.12 in1020.0 mb 0.00 in0.0 mm 0.00 in0.0 mm 0.00 in0.0 mm
10:59 AM 79.5°F26.4°C 62.5°F16.9°C 56% 1.3 mph N2.1 kmh N 2.7 mph4.3 kmh 30.15 in1021.0 mb 0.00 in0.0 mm 0.00 in0.0 mm 0.00 in0.0 mm
11:04 AM 79.5°F26.4°C 62.5°F16.9°C 56% 5.6 mph NNE9.0 kmh NNE 5.6 mph9.0 kmh 30.15 in1021.0 mb 0.00 in0.0 mm 0.00 in0.0 mm 0.00 in0.0 mm
11:09 AM 79.2°F26.2°C 62.1°F16.7°C 56% 2.0 mph NNE3.2 kmh NNE 6.3 mph10.1 kmh 30.15 in1021.0 mb 0.00 in0.0 mm 0.00 in0.0 mm 0.00 in0.0 mm
11:14 AM 79.7°F26.5°C 62.6°F17.0°C 56% 2.9 mph NE4.7 kmh NE 2.9 mph4.7 kmh 30.15 in1021.0 mb 0.00 in0.0 mm 0.00 in0.0 mm 0.00 in0.0 mm
11:18 AM 79.5°F26.4°C 62.0°F16.7°C 55% 6.5 mph NE10.5 kmh NE 6.5 mph10.5 kmh 30.15 in1021.0 mb 0.00 in0.0 mm 0.00 in0.0 mm 0.00 in0.0 mm
11:24 AM 79.2°F26.2°C 61.6°F16.4°C 55% 1.3 mph NE2.1 kmh NE 5.8 mph9.3 kmh 30.15 in1021.0 mb 0.00 in0.0 mm 0.00 in0.0 mm 0.00 in0.0 mm
11:29 AM 79.5°F26.4°C 62.0°F16.7°C 55% 5.8 mph NE9.3 kmh NE 5.8 mph9.3 kmh 30.15 in1021.0 mb 0.00 in0.0 mm 0.00 in0.0 mm 0.00 in0.0 mm
11:34 AM 79.3°F26.3°C 61.3°F16.3°C 54% 4.0 mph NNE6.4 kmh NNE 5.6 mph9.0 kmh 30.15 in1021.0 mb 0.00 in0.0 mm 0.00 in0.0 mm 0.00 in0.0 mm
11:40 AM 79.2°F26.2°C 61.6°F16.4°C 55% 2.0 mph NE3.2 kmh NE 4.9 mph7.9 kmh 30.15 in1021.0 mb 0.00 in0.0 mm 0.00 in0.0 mm 0.00 in0.0 mm
11:45 AM 79.7°F26.5°C 61.6°F16.4°C 54% 2.7 mph NNW4.3 kmh NNW 3.1 mph5.0 kmh 30.15 in1021.0 mb 0.00 in0.0 mm 0.00 in0.0 mm 0.00 in0.0 mm
11:50 AM 79.9°F26.6°C 61.8°F16.6°C 54% 3.1 mph NNE5.0 kmh NNE 3.1 mph5.0 kmh 30.15 in1021.0 mb 0.00 in0.0 mm 0.00 in0.0 mm 0.00 in0.0 mm
11:55 AM 80.4°F26.9°C 62.3°F16.8°C 54% 2.0 mph WSW3.2 kmh WSW 3.4 mph5.5 kmh 30.15 in1021.0 mb 0.00 in0.0 mm 0.00 in0.0 mm 0.00 in0.0 mm
11:59 AM 80.4°F26.9°C 61.7°F16.5°C 53% 2.0 mph WSW3.2 kmh WSW 2.0 mph3.2 kmh 30.15 in1021.0 mb 0.00 in0.0 mm 0.00 in0.0 mm 0.00 in0.0 mm
12:05 PM 80.6°F27.0°C 61.9°F16.6°C 53% 4.0 mph NNE6.4 kmh NNE 4.0 mph6.4 kmh 30.15 in1021.0 mb 0.00 in0.0 mm 0.00 in0.0 mm 0.00 in0.0 mm
12:09 PM 80.8°F27.1°C 62.1°F16.7°C 53% 1.3 mph NE2.1 kmh NE 6.0 mph9.7 kmh 30.15 in1021.0 mb 0.00 in0.0 mm 0.00 in0.0 mm 0.00 in0.0 mm
12:14 PM 81.1°F27.3°C 62.4°F16.9°C 53% Calm Calm -- 30.15 in1021.0 mb 0.00 in0.0 mm 0.00 in0.0 mm 0.00 in0.0 mm
12:19 PM 81.3°F27.4°C 62.0°F16.7°C 52% 4.0 mph NE6.4 kmh NE 5.8 mph9.3 kmh 30.15 in1021.0 mb 0.00 in0.0 mm 0.00 in0.0 mm 0.00 in0.0 mm
12:24 PM 82.0°F27.8°C 63.2°F17.3°C 53% 3.4 mph NNE5.5 kmh NNE 3.4 mph5.5 kmh 30.15 in1021.0 mb 0.00 in0.0 mm 0.00 in0.0 mm 0.00 in0.0 mm
12:29 PM 82.6°F28.1°C 62.6°F17.0°C 51% 1.3 mph NW2.1 kmh NW 3.4 mph5.5 kmh 30.15 in1021.0 mb 0.00 in0.0 mm 0.00 in0.0 mm 0.00 in0.0 mm
12:34 PM 82.0°F27.8°C 62.1°F16.7°C 51% 1.3 mph NE2.1 kmh NE 6.0 mph9.7 kmh 30.15 in1021.0 mb 0.00 in0.0 mm 0.00 in0.0 mm 0.00 in0.0 mm
12:40 PM 82.8°F28.2°C 62.8°F17.1°C 51% 5.6 mph NE9.0 kmh NE 5.6 mph9.0 kmh 30.15 in1021.0 mb 0.00 in0.0 mm 0.00 in0.0 mm 0.00 in0.0 mm
12:45 PM 82.2°F27.9°C 62.9°F17.2°C 52% 2.2 mph NW3.5 kmh NW 5.8 mph9.3 kmh 30.15 in1021.0 mb 0.00 in0.0 mm 0.00 in0.0 mm 0.00 in0.0 mm
12:50 PM 83.5°F28.6°C 63.5°F17.5°C 51% 1.6 mph NW2.6 kmh NW 2.2 mph3.5 kmh 30.15 in1021.0 mb 0.00 in0.0 mm 0.00 in0.0 mm 0.00 in0.0 mm
12:54 PM 83.5°F28.6°C 62.9°F17.2°C 50% 3.1 mph N5.0 kmh N 6.0 mph9.7 kmh 30.15 in1021.0 mb 0.00 in0.0 mm 0.00 in0.0 mm 0.00 in0.0 mm
12:59 PM 84.2°F29.0°C 63.0°F17.2°C 49% 3.6 mph NE5.8 kmh NE 4.0 mph6.4 kmh 30.15 in1021.0 mb 0.00 in0.0 mm 0.00 in0.0 mm 0.00 in0.0 mm
01:04 PM 84.2°F29.0°C 63.0°F17.2°C 49% 3.8 mph W6.1 kmh W 3.8 mph6.1 kmh 30.15 in1021.0 mb 0.00 in0.0 mm 0.00 in0.0 mm 0.00 in0.0 mm
01:08 PM 84.6°F29.2°C 63.3°F17.4°C 49% Calm Calm 4.0 mph6.4 kmh 30.15 in1021.0 mb 0.00 in0.0 mm 0.00 in0.0 mm 0.00 in0.0 mm
01:14 PM 85.3°F29.6°C 64.0°F17.8°C 49% 3.1 mph W5.0 kmh W 4.7 mph7.6 kmh 30.15 in1021.0 mb 0.00 in0.0 mm 0.00 in0.0 mm 0.00 in0.0 mm
01:19 PM 84.9°F29.4°C 63.1°F17.3°C 48% 1.6 mph N2.6 kmh N 8.1 mph13.0 kmh 30.15 in1021.0 mb 0.00 in0.0 mm 0.00 in0.0 mm 0.00 in0.0 mm
01:24 PM 85.1°F29.5°C 63.2°F17.3°C 48% 3.4 mph N5.5 kmh N 5.6 mph9.0 kmh 30.15 in1021.0 mb 0.00 in0.0 mm 0.00 in0.0 mm 0.00 in0.0 mm
01:29 PM 85.1°F29.5°C 63.2°F17.3°C 48% 1.6 mph N2.6 kmh N 4.9 mph7.9 kmh 30.15 in1021.0 mb 0.00 in0.0 mm 0.00 in0.0 mm 0.00 in0.0 mm
01:34 PM 85.5°F29.7°C 63.6°F17.6°C 48% 1.1 mph ENE1.8 kmh ENE 3.4 mph5.5 kmh 30.15 in1021.0 mb 0.00 in0.0 mm 0.00 in0.0 mm 0.00 in0.0 mm
01:40 PM 86.0°F30.0°C 63.4°F17.4°C 47% 2.5 mph NNW4.0 kmh NNW 3.6 mph5.8 kmh 30.15 in1021.0 mb 0.00 in0.0 mm 0.00 in0.0 mm 0.00 in0.0 mm
01:45 PM 86.0°F30.0°C 63.4°F17.4°C 47% 4.0 mph NE6.4 kmh NE 4.0 mph6.4 kmh 30.12 in1020.0 mb 0.00 in0.0 mm 0.00 in0.0 mm 0.00 in0.0 mm
01:50 PM 86.2°F30.1°C 63.6°F17.6°C 47% 2.9 mph N4.7 kmh N 4.0 mph6.4 kmh 30.12 in1020.0 mb 0.00 in0.0 mm 0.00 in0.0 mm 0.00 in0.0 mm
01:54 PM 86.5°F30.3°C 63.3°F17.4°C 46% Calm Calm 2.9 mph4.7 kmh 30.12 in1020.0 mb 0.00 in0.0 mm 0.00 in0.0 mm 0.00 in0.0 mm
01:59 PM 86.5°F30.3°C 63.3°F17.4°C 46% 3.8 mph NNE6.1 kmh NNE 3.8 mph6.1 kmh 30.12 in1020.0 mb 0.00 in0.0 mm 0.00 in0.0 mm 0.00 in0.0 mm
02:04 PM 86.5°F30.3°C 63.3°F17.4°C 46% 1.6 mph NNW2.6 kmh NNW 4.9 mph7.9 kmh 30.12 in1020.0 mb 0.00 in0.0 mm 0.00 in0.0 mm 0.00 in0.0 mm
02:09 PM 86.9°F30.5°C 63.7°F17.6°C 46% 2.2 mph NW3.5 kmh NW 5.6 mph9.0 kmh 30.12 in1020.0 mb 0.00 in0.0 mm 0.00 in0.0 mm 0.00 in0.0 mm
02:14 PM 87.3°F30.7°C 63.4°F17.4°C 45% 2.7 mph NE4.3 kmh NE 4.3 mph6.9 kmh 30.12 in1020.0 mb 0.00 in0.0 mm 0.00 in0.0 mm 0.00 in0.0 mm
02:19 PM 87.3°F30.7°C 63.4°F17.4°C 45% 1.1 mph NNW1.8 kmh NNW 5.6 mph9.0 kmh 30.12 in1020.0 mb 0.00 in0.0 mm 0.00 in0.0 mm 0.00 in0.0 mm
02:24 PM 87.1°F30.6°C 63.2°F17.3°C 45% 1.6 mph NNW2.6 kmh NNW 4.0 mph6.4 kmh 30.12 in1020.0 mb 0.00 in0.0 mm 0.00 in0.0 mm 0.00 in0.0 mm
02:29 PM 86.9°F30.5°C 63.0°F17.2°C 45% 1.1 mph WSW1.8 kmh WSW 3.1 mph5.0 kmh 30.12 in1020.0 mb 0.00 in0.0 mm 0.00 in0.0 mm 0.00 in0.0 mm
02:34 PM 87.3°F30.7°C 63.4°F17.4°C 45% 2.0 mph SW3.2 kmh SW 2.0 mph3.2 kmh 30.12 in1020.0 mb 0.00 in0.0 mm 0.00 in0.0 mm 0.00 in0.0 mm
02:38 PM 87.3°F30.7°C 63.4°F17.4°C 45% 1.6 mph WSW2.6 kmh WSW 3.6 mph5.8 kmh 30.12 in1020.0 mb 0.00 in0.0 mm 0.00 in0.0 mm 0.00 in0.0 mm
02:45 PM 87.1°F30.6°C 62.6°F17.0°C 44% 2.9 mph NE4.7 kmh NE 3.6 mph5.8 kmh 30.12 in1020.0 mb 0.00 in0.0 mm 0.00 in0.0 mm 0.00 in0.0 mm
02:49 PM 87.1°F30.6°C 62.6°F17.0°C 44% 2.5 mph NE4.0 kmh NE 6.5 mph10.5 kmh 30.12 in1020.0 mb 0.00 in0.0 mm 0.00 in0.0 mm 0.00 in0.0 mm
02:55 PM 87.6°F30.9°C 62.4°F16.9°C 43% 6.3 mph N10.1 kmh N 6.3 mph10.1 kmh 30.12 in1020.0 mb 0.00 in0.0 mm 0.00 in0.0 mm 0.00 in0.0 mm
02:58 PM 87.6°F30.9°C 62.4°F16.9°C 43% 2.0 mph ENE3.2 kmh ENE 6.3 mph10.1 kmh 30.12 in1020.0 mb 0.00 in0.0 mm 0.00 in0.0 mm 0.00 in0.0 mm
03:04 PM 87.1°F30.6°C 62.6°F17.0°C 44% 3.4 mph ENE5.5 kmh ENE 4.9 mph7.9 kmh 30.12 in1020.0 mb 0.00 in0.0 mm 0.00 in0.0 mm 0.00 in0.0 mm
03:09 PM 87.1°F30.6°C 62.6°F17.0°C 44% Calm Calm 5.8 mph9.3 kmh 30.12 in1020.0 mb 0.00 in0.0 mm 0.00 in0.0 mm 0.00 in0.0 mm
03:14 PM 87.6°F30.9°C 63.0°F17.2°C 44% 2.7 mph NE4.3 kmh NE 2.7 mph4.3 kmh 30.12 in1020.0 mb 0.00 in0.0 mm 0.00 in0.0 mm 0.00 in0.0 mm
03:19 PM 87.8°F31.0°C 62.5°F16.9°C 43% 0.9 mph WSW1.4 kmh WSW 2.9 mph4.7 kmh 30.12 in1020.0 mb 0.00 in0.0 mm 0.00 in0.0 mm 0.00 in0.0 mm
03:24 PM 87.3°F30.7°C 62.7°F17.1°C 44% 0.9 mph N1.4 kmh N 3.6 mph5.8 kmh 30.12 in1020.0 mb 0.00 in0.0 mm 0.00 in0.0 mm 0.00 in0.0 mm
03:29 PM 87.1°F30.6°C 62.6°F17.0°C 44% 2.9 mph NE4.7 kmh NE 3.6 mph5.8 kmh 30.12 in1020.0 mb 0.00 in0.0 mm 0.00 in0.0 mm 0.00 in0.0 mm
03:34 PM 87.3°F30.7°C 62.1°F16.7°C 43% 2.0 mph W3.2 kmh W 4.0 mph6.4 kmh 30.12 in1020.0 mb 0.00 in0.0 mm 0.00 in0.0 mm 0.00 in0.0 mm
03:40 PM 87.4°F30.8°C 62.2°F16.8°C 43% 4.0 mph SSW6.4 kmh SSW 4.0 mph6.4 kmh 30.12 in1020.0 mb 0.00 in0.0 mm 0.00 in0.0 mm 0.00 in0.0 mm
03:45 PM 87.6°F30.9°C 62.4°F16.9°C 43% 2.9 mph NNE4.7 kmh NNE 4.0 mph6.4 kmh 30.12 in1020.0 mb 0.00 in0.0 mm 0.00 in0.0 mm 0.00 in0.0 mm
03:50 PM 87.8°F31.0°C 61.9°F16.6°C 42% 4.3 mph NE6.9 kmh NE 4.3 mph6.9 kmh 30.12 in1020.0 mb 0.00 in0.0 mm 0.00 in0.0 mm 0.00 in0.0 mm
03:55 PM 87.8°F31.0°C 61.9°F16.6°C 42% 2.7 mph NNE4.3 kmh NNE 4.3 mph6.9 kmh 30.12 in1020.0 mb 0.00 in0.0 mm 0.00 in0.0 mm 0.00 in0.0 mm
03:59 PM 88.2°F31.2°C 62.2°F16.8°C 42% 2.0 mph NNE3.2 kmh NNE 3.1 mph5.0 kmh 30.12 in1020.0 mb 0.00 in0.0 mm 0.00 in0.0 mm 0.00 in0.0 mm
04:04 PM 88.2°F31.2°C 62.2°F16.8°C 42% 2.7 mph N4.3 kmh N 4.0 mph6.4 kmh 30.12 in1020.0 mb 0.00 in0.0 mm 0.00 in0.0 mm 0.00 in0.0 mm
04:09 PM 88.3°F31.3°C 62.4°F16.9°C 42% 2.9 mph N4.7 kmh N 4.7 mph7.6 kmh 30.12 in1020.0 mb 0.00 in0.0 mm 0.00 in0.0 mm 0.00 in0.0 mm
04:14 PM 88.0°F31.1°C 62.0°F16.7°C 42% 5.6 mph N9.0 kmh N 9.6 mph15.4 kmh 30.12 in1020.0 mb 0.00 in0.0 mm 0.00 in0.0 mm 0.00 in0.0 mm
04:19 PM 87.6°F30.9°C 62.4°F16.9°C 43% 2.2 mph NW3.5 kmh NW 4.3 mph6.9 kmh 30.12 in1020.0 mb 0.00 in0.0 mm 0.00 in0.0 mm 0.00 in0.0 mm
04:24 PM 87.3°F30.7°C 62.1°F16.7°C 43% 2.2 mph SW3.5 kmh SW 3.8 mph6.1 kmh 30.12 in1020.0 mb 0.00 in0.0 mm 0.00 in0.0 mm 0.00 in0.0 mm
04:29 PM 86.9°F30.5°C 62.4°F16.9°C 44% 2.0 mph N3.2 kmh N 2.2 mph3.5 kmh 30.12 in1020.0 mb 0.00 in0.0 mm 0.00 in0.0 mm 0.00 in0.0 mm
04:34 PM 86.2°F30.1°C 61.7°F16.5°C 44% 3.1 mph NE5.0 kmh NE 4.3 mph6.9 kmh 30.12 in1020.0 mb 0.00 in0.0 mm 0.00 in0.0 mm 0.00 in0.0 mm
04:39 PM 84.6°F29.2°C 60.9°F16.1°C 45% 2.5 mph N4.0 kmh N 4.3 mph6.9 kmh 30.12 in1020.0 mb 0.00 in0.0 mm 0.00 in0.0 mm 0.00 in0.0 mm
04:45 PM 83.7°F28.7°C 61.3°F16.3°C 47% 3.6 mph NE5.8 kmh NE 3.6 mph5.8 kmh 30.12 in1020.0 mb 0.00 in0.0 mm 0.00 in0.0 mm 0.00 in0.0 mm
04:50 PM 82.9°F28.3°C 61.3°F16.3°C 48% 1.6 mph NNW2.6 kmh NNW 4.3 mph6.9 kmh 30.12 in1020.0 mb 0.00 in0.0 mm 0.00 in0.0 mm 0.00 in0.0 mm
04:55 PM 81.9°F27.7°C 61.4°F16.3°C 50% 2.5 mph NE4.0 kmh NE 4.0 mph6.4 kmh 30.12 in1020.0 mb 0.00 in0.0 mm 0.00 in0.0 mm 0.00 in0.0 mm
04:59 PM 81.3°F27.4°C 61.5°F16.4°C 51% 1.6 mph NE2.6 kmh NE 3.4 mph5.5 kmh 30.12 in1020.0 mb 0.00 in0.0 mm 0.00 in0.0 mm 0.00 in0.0 mm
05:04 PM 81.1°F27.3°C 61.3°F16.3°C 51% 1.3 mph E2.1 kmh E 3.4 mph5.5 kmh 30.12 in1020.0 mb 0.00 in0.0 mm 0.00 in0.0 mm 0.00 in0.0 mm
05:09 PM 80.8°F27.1°C 61.5°F16.4°C 52% 1.3 mph NE2.1 kmh NE 3.1 mph5.0 kmh 30.12 in1020.0 mb 0.00 in0.0 mm 0.00 in0.0 mm 0.00 in0.0 mm
05:14 PM 80.4°F26.9°C 61.7°F16.5°C 53% Calm Calm 4.9 mph7.9 kmh 30.12 in1020.0 mb 0.00 in0.0 mm 0.00 in0.0 mm 0.00 in0.0 mm
05:19 PM 80.1°F26.7°C 61.9°F16.6°C 54% 3.8 mph NE6.1 kmh NE 4.3 mph6.9 kmh 30.12 in1020.0 mb 0.00 in0.0 mm 0.00 in0.0 mm 0.00 in0.0 mm
05:24 PM 79.5°F26.4°C 62.0°F16.7°C 55% 1.3 mph N2.1 kmh N 3.4 mph5.5 kmh 30.12 in1020.0 mb 0.00 in0.0 mm 0.00 in0.0 mm 0.00 in0.0 mm
05:29 PM 79.3°F26.3°C 61.8°F16.6°C 55% 1.6 mph NNE2.6 kmh NNE 2.7 mph4.3 kmh 30.12 in1020.0 mb 0.00 in0.0 mm 0.00 in0.0 mm 0.00 in0.0 mm
05:34 PM 79.2°F26.2°C 62.1°F16.7°C 56% Calm Calm 2.9 mph4.7 kmh 30.12 in1020.0 mb 0.00 in0.0 mm 0.00 in0.0 mm 0.00 in0.0 mm
05:39 PM 79.0°F26.1°C 62.0°F16.7°C 56% 2.5 mph SSW4.0 kmh SSW 4.0 mph6.4 kmh 30.12 in1020.0 mb 0.00 in0.0 mm 0.00 in0.0 mm 0.00 in0.0 mm
05:45 PM 78.8°F26.0°C 61.8°F16.6°C 56% 2.5 mph NE4.0 kmh NE 4.0 mph6.4 kmh 30.12 in1020.0 mb 0.00 in0.0 mm 0.00 in0.0 mm 0.00 in0.0 mm
05:50 PM 78.4°F25.8°C 62.0°F16.7°C 57% 0.9 mph NNE1.4 kmh NNE 4.0 mph6.4 kmh 30.12 in1020.0 mb 0.00 in0.0 mm 0.00 in0.0 mm 0.00 in0.0 mm
05:55 PM 78.1°F25.6°C 62.1°F16.7°C 58% 1.3 mph NW2.1 kmh NW 3.6 mph5.8 kmh 30.12 in1020.0 mb 0.00 in0.0 mm 0.00 in0.0 mm 0.00 in0.0 mm
05:59 PM 77.9°F25.5°C 62.0°F16.7°C 58% 3.6 mph NNE5.8 kmh NNE 3.6 mph5.8 kmh 30.12 in1020.0 mb 0.00 in0.0 mm 0.00 in0.0 mm 0.00 in0.0 mm
06:04 PM 77.7°F25.4°C 61.8°F16.6°C 58% 3.1 mph ENE5.0 kmh ENE 3.1 mph5.0 kmh 30.12 in1020.0 mb 0.00 in0.0 mm 0.00 in0.0 mm 0.00 in0.0 mm
06:09 PM 77.7°F25.4°C 61.8°F16.6°C 58% 3.4 mph N5.5 kmh N 3.4 mph5.5 kmh 30.12 in1020.0 mb 0.00 in0.0 mm 0.00 in0.0 mm 0.00 in0.0 mm
06:14 PM 77.2°F25.1°C 61.8°F16.6°C 59% 5.4 mph NE8.7 kmh NE 5.4 mph8.7 kmh 30.12 in1020.0 mb 0.00 in0.0 mm 0.00 in0.0 mm 0.00 in0.0 mm
06:19 PM 77.2°F25.1°C 61.8°F16.6°C 59% 1.6 mph NNW2.6 kmh NNW 3.8 mph6.1 kmh 30.12 in1020.0 mb 0.00 in0.0 mm 0.00 in0.0 mm 0.00 in0.0 mm
06:24 PM 77.0°F25.0°C 61.6°F16.4°C 59% 1.3 mph N2.1 kmh N 1.6 mph2.6 kmh 30.12 in1020.0 mb 0.00 in0.0 mm 0.00 in0.0 mm 0.00 in0.0 mm
06:29 PM 77.0°F25.0°C 61.6°F16.4°C 59% 4.3 mph NE6.9 kmh NE 4.3 mph6.9 kmh 30.15 in1021.0 mb 0.00 in0.0 mm 0.00 in0.0 mm 0.00 in0.0 mm
06:34 PM 77.0°F25.0°C 62.1°F16.7°C 60% 4.9 mph NE7.9 kmh NE 4.9 mph7.9 kmh 30.15 in1021.0 mb 0.00 in0.0 mm 0.00 in0.0 mm 0.00 in0.0 mm
06:39 PM 76.5°F24.7°C 61.6°F16.4°C 60% 4.9 mph NE7.9 kmh NE 4.9 mph7.9 kmh 30.15 in1021.0 mb 0.00 in0.0 mm 0.00 in0.0 mm 0.00 in0.0 mm
06:45 PM 76.5°F24.7°C 61.6°F16.4°C 60% 0.9 mph NE1.4 kmh NE 4.9 mph7.9 kmh 30.15 in1021.0 mb 0.00 in0.0 mm 0.00 in0.0 mm 0.00 in0.0 mm
06:50 PM 76.3°F24.6°C 61.9°F16.6°C 61% 2.7 mph NE4.3 kmh NE 5.8 mph9.3 kmh 30.15 in1021.0 mb 0.00 in0.0 mm 0.00 in0.0 mm 0.00 in0.0 mm
06:55 PM 76.3°F24.6°C 61.9°F16.6°C 61% 3.6 mph N5.8 kmh N 5.6 mph9.0 kmh 30.15 in1021.0 mb 0.00 in0.0 mm 0.00 in0.0 mm 0.00 in0.0 mm
06:59 PM 76.3°F24.6°C 61.9°F16.6°C 61% 1.3 mph NNE2.1 kmh NNE 3.6 mph5.8 kmh 30.15 in1021.0 mb 0.00 in0.0 mm 0.00 in0.0 mm 0.00 in0.0 mm
07:04 PM 76.5°F24.7°C 62.5°F16.9°C 62% 1.6 mph N2.6 kmh N 3.1 mph5.0 kmh 30.15 in1021.0 mb 0.00 in0.0 mm 0.00 in0.0 mm 0.00 in0.0 mm
07:09 PM 76.5°F24.7°C 62.5°F16.9°C 62% 5.8 mph NE9.3 kmh NE 5.8 mph9.3 kmh 30.15 in1021.0 mb 0.00 in0.0 mm 0.00 in0.0 mm 0.00 in0.0 mm
07:14 PM 76.3°F24.6°C 62.3°F16.8°C 62% 2.5 mph NE4.0 kmh NE 4.0 mph6.4 kmh 30.15 in1021.0 mb 0.00 in0.0 mm 0.00 in0.0 mm 0.00 in0.0 mm
07:19 PM 75.9°F24.4°C 62.0°F16.7°C 62% 1.6 mph NE2.6 kmh NE 4.0 mph6.4 kmh 30.15 in1021.0 mb 0.00 in0.0 mm 0.00 in0.0 mm 0.00 in0.0 mm
07:24 PM 75.7°F24.3°C 61.8°F16.6°C 62% 1.6 mph SW2.6 kmh SW 2.7 mph4.3 kmh 30.15 in1021.0 mb 0.00 in0.0 mm 0.00 in0.0 mm 0.00 in0.0 mm
07:29 PM 75.7°F24.3°C 61.8°F16.6°C 62% Calm Calm 5.8 mph9.3 kmh 30.15 in1021.0 mb 0.00 in0.0 mm 0.00 in0.0 mm 0.00 in0.0 mm
07:34 PM 75.7°F24.3°C 62.3°F16.8°C 63% 1.6 mph N2.6 kmh N 2.0 mph3.2 kmh 30.15 in1021.0 mb 0.00 in0.0 mm 0.00 in0.0 mm 0.00 in0.0 mm
07:39 PM 75.6°F24.2°C 62.1°F16.7°C 63% 1.6 mph N2.6 kmh N 3.6 mph5.8 kmh 30.15 in1021.0 mb 0.00 in0.0 mm 0.00 in0.0 mm 0.00 in0.0 mm
07:45 PM 75.6°F24.2°C 62.1°F16.7°C 63% Calm Calm 3.4 mph5.5 kmh 30.15 in1021.0 mb 0.00 in0.0 mm 0.00 in0.0 mm 0.00 in0.0 mm
07:50 PM 75.4°F24.1°C 61.9°F16.6°C 63% 2.5 mph NE4.0 kmh NE 2.7 mph4.3 kmh 30.15 in1021.0 mb 0.00 in0.0 mm 0.00 in0.0 mm 0.00 in0.0 mm
07:55 PM 75.4°F24.1°C 61.9°F16.6°C 63% 1.1 mph WNW1.8 kmh WNW 2.7 mph4.3 kmh 30.15 in1021.0 mb 0.00 in0.0 mm 0.00 in0.0 mm 0.00 in0.0 mm
07:59 PM 75.2°F24.0°C 62.2°F16.8°C 64% 2.0 mph NE3.2 kmh NE 2.0 mph3.2 kmh 30.15 in1021.0 mb 0.00 in0.0 mm 0.00 in0.0 mm 0.00 in0.0 mm
08:04 PM 74.8°F23.8°C 62.3°F16.8°C 65% Calm Calm 2.7 mph4.3 kmh 30.15 in1021.0 mb 0.00 in0.0 mm 0.00 in0.0 mm 0.00 in0.0 mm
08:09 PM 74.3°F23.5°C 61.8°F16.6°C 65% 1.3 mph N2.1 kmh N 1.3 mph2.1 kmh 30.15 in1021.0 mb 0.00 in0.0 mm 0.00 in0.0 mm 0.00 in0.0 mm
08:14 PM 74.1°F23.4°C 62.1°F16.7°C 66% 1.6 mph N2.6 kmh N 1.6 mph2.6 kmh 30.15 in1021.0 mb 0.00 in0.0 mm 0.00 in0.0 mm 0.00 in0.0 mm
08:19 PM 74.1°F23.4°C 62.1°F16.7°C 66% 1.3 mph N2.1 kmh N 1.6 mph2.6 kmh 30.15 in1021.0 mb 0.00 in0.0 mm 0.00 in0.0 mm 0.00 in0.0 mm
08:24 PM 73.9°F23.3°C 61.9°F16.6°C 66% Calm Calm 1.1 mph1.8 kmh 30.15 in1021.0 mb 0.00 in0.0 mm 0.00 in0.0 mm 0.00 in0.0 mm
08:29 PM 73.9°F23.3°C 61.9°F16.6°C 66% Calm Calm -- 30.15 in1021.0 mb 0.00 in0.0 mm 0.00 in0.0 mm 0.00 in0.0 mm
08:34 PM 73.9°F23.3°C 62.3°F16.8°C 67% Calm Calm 2.7 mph4.3 kmh 30.15 in1021.0 mb 0.00 in0.0 mm 0.00 in0.0 mm 0.00 in0.0 mm
08:39 PM 73.9°F23.3°C 62.3°F16.8°C 67% 1.6 mph NE2.6 kmh NE 2.0 mph3.2 kmh 30.15 in1021.0 mb 0.00 in0.0 mm 0.00 in0.0 mm 0.00 in0.0 mm
08:45 PM 73.8°F23.2°C 62.1°F16.7°C 67% 1.3 mph N2.1 kmh N 1.3 mph2.1 kmh 30.15 in1021.0 mb 0.00 in0.0 mm 0.00 in0.0 mm 0.00 in0.0 mm
08:50 PM 73.8°F23.2°C 62.1°F16.7°C 67% 1.3 mph N2.1 kmh N 1.3 mph2.1 kmh 30.15 in1021.0 mb 0.00 in0.0 mm 0.00 in0.0 mm 0.00 in0.0 mm
08:55 PM 73.8°F23.2°C 62.1°F16.7°C 67% 1.1 mph NE1.8 kmh NE 1.3 mph2.1 kmh 30.15 in1021.0 mb 0.00 in0.0 mm 0.00 in0.0 mm 0.00 in0.0 mm
09:00 PM 73.8°F23.2°C 62.1°F16.7°C 67% Calm Calm 1.6 mph2.6 kmh 30.18 in1022.0 mb 0.00 in0.0 mm 0.00 in0.0 mm 0.00 in0.0 mm
09:04 PM 73.8°F23.2°C 62.1°F16.7°C 67% 2.2 mph N3.5 kmh N 2.2 mph3.5 kmh 30.18 in1022.0 mb 0.00 in0.0 mm 0.00 in0.0 mm 0.00 in0.0 mm
09:08 PM 73.6°F23.1°C 62.0°F16.7°C 67% 0.9 mph N1.4 kmh N 2.0 mph3.2 kmh 30.18 in1022.0 mb 0.00 in0.0 mm 0.00 in0.0 mm 0.00 in0.0 mm
09:14 PM 73.6°F23.1°C 62.0°F16.7°C 67% Calm Calm 2.2 mph3.5 kmh 30.18 in1022.0 mb 0.00 in0.0 mm 0.00 in0.0 mm 0.00 in0.0 mm
09:19 PM 73.6°F23.1°C 62.0°F16.7°C 67% 1.1 mph NE1.8 kmh NE 2.9 mph4.7 kmh 30.18 in1022.0 mb 0.00 in0.0 mm 0.00 in0.0 mm 0.00 in0.0 mm
09:24 PM 73.6°F23.1°C 62.0°F16.7°C 67% Calm Calm 2.0 mph3.2 kmh 30.18 in1022.0 mb 0.00 in0.0 mm 0.00 in0.0 mm 0.00 in0.0 mm
09:29 PM 73.6°F23.1°C 62.4°F16.9°C 68% Calm Calm 3.4 mph5.5 kmh 30.18 in1022.0 mb 0.00 in0.0 mm 0.00 in0.0 mm 0.00 in0.0 mm
09:34 PM 73.6°F23.1°C 62.4°F16.9°C 68% 1.3 mph NE2.1 kmh NE 2.5 mph4.0 kmh 30.18 in1022.0 mb 0.00 in0.0 mm 0.00 in0.0 mm 0.00 in0.0 mm
09:39 PM 73.4°F23.0°C 62.2°F16.8°C 68% 0.9 mph NNE1.4 kmh NNE 2.7 mph4.3 kmh 30.18 in1022.0 mb 0.00 in0.0 mm 0.00 in0.0 mm 0.00 in0.0 mm
09:44 PM 73.4°F23.0°C 62.2°F16.8°C 68% Calm Calm 1.6 mph2.6 kmh 30.18 in1022.0 mb 0.00 in0.0 mm 0.00 in0.0 mm 0.00 in0.0 mm
09:50 PM 73.4°F23.0°C 62.6°F17.0°C 69% 2.0 mph NNE3.2 kmh NNE 3.1 mph5.0 kmh 30.18 in1022.0 mb 0.00 in0.0 mm 0.00 in0.0 mm 0.00 in0.0 mm
09:55 PM 73.4°F23.0°C 62.6°F17.0°C 69% 1.1 mph NE1.8 kmh NE 1.1 mph1.8 kmh 30.18 in1022.0 mb 0.00 in0.0 mm 0.00 in0.0 mm 0.00 in0.0 mm
10:00 PM 73.4°F23.0°C 62.6°F17.0°C 69% 2.5 mph NE4.0 kmh NE 2.5 mph4.0 kmh 30.18 in1022.0 mb 0.00 in0.0 mm 0.00 in0.0 mm 0.00 in0.0 mm
10:05 PM 73.4°F23.0°C 63.0°F17.2°C 70% 3.4 mph NE5.5 kmh NE 3.4 mph5.5 kmh 30.18 in1022.0 mb 0.00 in0.0 mm 0.00 in0.0 mm 0.00 in0.0 mm
10:09 PM 73.2°F22.9°C 62.9°F17.2°C 70% 1.6 mph NNE2.6 kmh NNE 3.8 mph6.1 kmh 30.18 in1022.0 mb 0.00 in0.0 mm 0.00 in0.0 mm 0.00 in0.0 mm
10:14 PM 73.2°F22.9°C 62.9°F17.2°C 70% Calm Calm 2.5 mph4.0 kmh 30.18 in1022.0 mb 0.00 in0.0 mm 0.00 in0.0 mm 0.00 in0.0 mm
10:19 PM 73.2°F22.9°C 62.9°F17.2°C 70% 0.9 mph N1.4 kmh N 2.7 mph4.3 kmh 30.18 in1022.0 mb 0.00 in0.0 mm 0.00 in0.0 mm 0.00 in0.0 mm
10:24 PM 73.2°F22.9°C 62.9°F17.2°C 70% 2.0 mph NE3.2 kmh NE 3.8 mph6.1 kmh 30.18 in1022.0 mb 0.00 in0.0 mm 0.00 in0.0 mm 0.00 in0.0 mm
10:29 PM 73.2°F22.9°C 62.9°F17.2°C 70% 2.5 mph NE4.0 kmh NE 3.1 mph5.0 kmh 30.18 in1022.0 mb 0.00 in0.0 mm 0.00 in0.0 mm 0.00 in0.0 mm
10:34 PM 73.0°F22.8°C 62.7°F17.1°C 70% 3.6 mph NE5.8 kmh NE 3.6 mph5.8 kmh 30.18 in1022.0 mb 0.00 in0.0 mm 0.00 in0.0 mm 0.00 in0.0 mm
10:39 PM 73.0°F22.8°C 62.7°F17.1°C 70% 2.0 mph NNE3.2 kmh NNE 3.6 mph5.8 kmh 30.18 in1022.0 mb 0.00 in0.0 mm 0.00 in0.0 mm 0.00 in0.0 mm
10:44 PM 73.0°F22.8°C 62.7°F17.1°C 70% 2.0 mph NE3.2 kmh NE 2.2 mph3.5 kmh 30.21 in1023.0 mb 0.00 in0.0 mm 0.00 in0.0 mm 0.00 in0.0 mm
10:48 PM 73.0°F22.8°C 62.7°F17.1°C 70% Calm Calm 2.2 mph3.5 kmh 30.21 in1023.0 mb 0.00 in0.0 mm 0.00 in0.0 mm 0.00 in0.0 mm
10:54 PM 73.0°F22.8°C 62.7°F17.1°C 70% 2.0 mph N3.2 kmh N 2.2 mph3.5 kmh 30.21 in1023.0 mb 0.00 in0.0 mm 0.00 in0.0 mm 0.00 in0.0 mm
11:00 PM 73.0°F22.8°C 62.7°F17.1°C 70% Calm Calm 2.2 mph3.5 kmh 30.21 in1023.0 mb 0.00 in0.0 mm 0.00 in0.0 mm 0.00 in0.0 mm
11:05 PM 73.0°F22.8°C 62.7°F17.1°C 70% Calm Calm 0.9 mph1.4 kmh 30.21 in1023.0 mb 0.00 in0.0 mm 0.00 in0.0 mm 0.00 in0.0 mm
11:09 PM 73.0°F22.8°C 62.7°F17.1°C 70% 1.3 mph NNE2.1 kmh NNE 1.3 mph2.1 kmh 30.21 in1023.0 mb 0.00 in0.0 mm 0.00 in0.0 mm 0.00 in0.0 mm
11:14 PM 73.0°F22.8°C 62.7°F17.1°C 70% 2.0 mph NNE3.2 kmh NNE 2.0 mph3.2 kmh 30.21 in1023.0 mb 0.00 in0.0 mm 0.00 in0.0 mm 0.00 in0.0 mm
11:19 PM 72.9°F22.7°C 62.1°F16.7°C 69% 2.5 mph N4.0 kmh N 2.5 mph4.0 kmh 30.21 in1023.0 mb 0.00 in0.0 mm 0.00 in0.0 mm 0.00 in0.0 mm
11:24 PM 72.9°F22.7°C 62.1°F16.7°C 69% Calm Calm 2.9 mph4.7 kmh 30.21 in1023.0 mb 0.00 in0.0 mm 0.00 in0.0 mm 0.00 in0.0 mm
11:29 PM 72.9°F22.7°C 62.1°F16.7°C 69% Calm Calm 1.1 mph1.8 kmh 30.21 in1023.0 mb 0.00 in0.0 mm 0.00 in0.0 mm 0.00 in0.0 mm
11:34 PM 72.7°F22.6°C 61.9°F16.6°C 69% Calm Calm 2.0 mph3.2 kmh 30.21 in1023.0 mb 0.00 in0.0 mm 0.00 in0.0 mm 0.00 in0.0 mm
11:39 PM 72.7°F22.6°C 61.9°F16.6°C 69% 1.3 mph N2.1 kmh N 1.3 mph2.1 kmh 30.21 in1023.0 mb 0.00 in0.0 mm 0.00 in0.0 mm 0.00 in0.0 mm
11:44 PM 72.7°F22.6°C 61.9°F16.6°C 69% 0.9 mph N1.4 kmh N 0.9 mph1.4 kmh 30.21 in1023.0 mb 0.00 in0.0 mm 0.00 in0.0 mm 0.00 in0.0 mm
11:49 PM 72.5°F22.5°C 61.8°F16.6°C 69% Calm Calm 2.2 mph3.5 kmh 30.21 in1023.0 mb 0.00 in0.0 mm 0.00 in0.0 mm 0.00 in0.0 mm
11:55 PM 72.5°F22.5°C 61.8°F16.6°C 69% 1.1 mph NNE1.8 kmh NNE 1.1 mph1.8 kmh 30.21 in1023.0 mb 0.00 in0.0 mm 0.00 in0.0 mm 0.00 in0.0 mm